Le Roy, KS (66857)

10:59 AM CDT on August 30, 2014 (GMT -0500)
KS | Change Station
CLOSE
Current Station
Personal Weather Station
Location: Burlington, KS
Elevation: 1050 ft
Nearby Weather Stations

Elev 1050 ft 38.19 °N, 95.74 °W | Updated 2 seconds ago

Clear
Clear
80.8 °F
Feels Like 80 °F
N
3.6
Wind Variable Wind from NNW
Gusts 5.6 mph

Today
High -- | Low -- °F
--% Chance of Precip.
Yesterday
High -- | Low -- °F
Precip. -- in
6:50 AM 7:54 PM
Waxing Crescent, 23% visible
Pressure 29.92 in
Visibility 10.0 miles
Clouds Clear
Heat Index 80 °F
Dew Point 52 °F
Humidity 37%
Rainfall 0.00 in
Snow Depth Not available.
UV 6 out of 12
Pollen 10.30 out of 12
Air Quality Not available.
Flu Activity Not available.
METAR KCNU 301552Z AUTO VRB04KT 10SM CLR 28/20 A2996 RMK AO2 SLP132 T02830200

More Conditions Fewer Conditions

Pressure 29.92 in
Visibility 10.0 miles
Clouds Clear
Heat Index 80 °F
Dew Point 52 °F
Humidity 37%
Rainfall 0.00 in
Snow Depth Not available.
UV 6 out of 12
Pollen 10.30 out of 12
Air Quality Not available.
Flu Activity Not available.
METAR KCNU 301552Z AUTO VRB04KT 10SM CLR 28/20 A2996 RMK AO2 SLP132 T02830200

More Conditions Fewer Conditions

10-Day Weather Forecast

Almanac

Astronomy

Aug. 30, 2014 Rise Set
Actual Time 6:50 AM CDT 7:54 PM CDT
Civil Twilight 6:23 AM CDT 8:22 PM CDT
Nautical Twilight 5:51 AM CDT 8:54 PM CDT
Astronomical Twilight 5:17 AM CDT 9:27 PM CDT
Moon 11:34 AM CDT 10:35 PM CDT
Length of Visible Light 13h 58m
Length of Day
13h 04m
Tomorrow will be 2m 21s shorter.
Waxing Crescent, 23% of the Moon is Illuminated
Today
Waxing Crescent
Sep 2
First Quarter
Sep 8
Full
Sep 15
Last Quarter
Sep 24
New

Today's Extremes

State Highs State Lows

Community

WunderPhotos

Upload Photos

1,748,550 photos uploaded!

WunderBlogs® & News

Nearby

Snow Depth

Station Depth Elevation
No new snow has been reported.

Earthquake Activity

City Distance Mag. Time & Date
Perry, Oklahoma 166 miles 3.0 4:52 AM CDT
2014-08-29
Perry, Oklahoma 164 miles 3.1 10:01 PM CDT
2014-08-28
Minimum magnitude displayed is 2.5.

Coastal Water Temperatures

Place Temperature
No Stations Reporting

Nearby Weather Stations